createdAt,value
2019-06-10T00:02:11.234Z,19.08
2019-06-10T00:04:38.563Z,19.17
2019-06-10T00:07:07.336Z,19.10
2019-06-10T00:09:35.457Z,18.96
2019-06-10T00:12:06.397Z,19.07
2019-06-10T00:14:34.134Z,19.16
2019-06-10T00:17:02.003Z,19.05
2019-06-10T00:19:31.696Z,18.99
2019-06-10T00:22:01.983Z,18.93
2019-06-10T00:24:31.515Z,18.96
2019-06-10T00:27:00.293Z,18.94
2019-06-10T00:29:28.130Z,18.92
2019-06-10T00:31:56.116Z,18.96
2019-06-10T00:34:23.511Z,18.96
2019-06-10T00:36:51.214Z,18.81
2019-06-10T00:39:21.935Z,18.84
2019-06-10T00:41:48.591Z,18.78
2019-06-10T00:44:16.010Z,18.77
2019-06-10T00:46:44.015Z,18.79
2019-06-10T00:49:14.360Z,18.70
2019-06-10T00:51:41.494Z,18.65
2019-06-10T00:54:12.787Z,18.70
2019-06-10T00:56:41.219Z,18.75
2019-06-10T00:59:12.721Z,18.75
2019-06-10T01:01:37.601Z,18.78
2019-06-10T01:04:06.896Z,18.68
2019-06-10T01:06:34.754Z,18.71
2019-06-10T01:09:04.484Z,18.80
2019-06-10T01:11:32.742Z,18.50
2019-06-10T01:14:01.443Z,18.60
2019-06-10T01:16:31.638Z,18.61
2019-06-10T01:19:01.253Z,18.56
2019-06-10T01:21:28.356Z,18.59
2019-06-10T01:23:58.216Z,18.45
2019-06-10T01:26:25.531Z,18.49
2019-06-10T01:28:52.863Z,18.34
2019-06-10T01:31:23.928Z,18.30
2019-06-10T01:33:51.348Z,18.29
2019-06-10T01:36:21.063Z,18.25
2019-06-10T01:38:47.808Z,18.26
2019-06-10T01:41:16.703Z,18.29
2019-06-10T01:43:44.499Z,18.22
2019-06-10T01:46:14.105Z,18.22
2019-06-10T01:48:47.240Z,18.35
2019-06-10T01:51:14.297Z,18.28
2019-06-10T01:53:41.493Z,18.27
2019-06-10T01:56:12.349Z,18.24
2019-06-10T01:58:40.594Z,18.24
2019-06-10T02:01:17.417Z,18.14
2019-06-10T02:03:43.499Z,18.16
2019-06-10T02:06:14.601Z,18.07
2019-06-10T02:08:41.798Z,17.98
2019-06-10T02:11:12.349Z,18.11
2019-06-10T02:13:40.823Z,18.13
2019-06-10T02:16:10.361Z,18.08
2019-06-10T02:18:37.806Z,17.96
2019-06-10T02:21:04.825Z,17.93
2019-06-10T02:23:33.093Z,17.86
2019-06-10T02:26:01.753Z,17.89
2019-06-10T02:28:31.668Z,17.91
2019-06-10T02:31:03.445Z,18.01
2019-06-10T02:33:32.403Z,18.05
2019-06-10T02:35:57.549Z,17.96
2019-06-10T02:38:33.701Z,17.94
2019-06-10T02:40:54.179Z,18.01
2019-06-10T02:43:31.696Z,17.91
2019-06-10T02:45:53.200Z,17.94
2019-06-10T02:48:24.378Z,17.85
2019-06-10T02:51:04.261Z,17.79
2019-06-10T02:53:35.603Z,17.84
2019-06-10T02:56:04.144Z,17.76
2019-06-10T02:58:38.488Z,17.75
2019-06-10T03:01:04.266Z,17.69
2019-06-10T03:03:39.380Z,17.64
2019-06-10T03:06:06.700Z,17.68
2019-06-10T03:08:35.242Z,17.65
2019-06-10T03:11:03.513Z,17.63
2019-06-10T03:13:29.561Z,17.74
2019-06-10T03:16:02.985Z,17.71
2019-06-10T03:18:32.676Z,17.63
2019-06-10T03:20:59.225Z,17.75
2019-06-10T03:23:27.884Z,17.64
2019-06-10T03:26:03.921Z,17.73
2019-06-10T03:28:32.081Z,17.51
2019-06-10T03:30:59.461Z,17.57
2019-06-10T03:33:31.467Z,17.55
2019-06-10T03:35:56.011Z,17.61
2019-06-10T03:38:25.444Z,17.71
2019-06-10T03:40:52.539Z,17.68
2019-06-10T03:43:21.433Z,17.49
2019-06-10T03:45:49.199Z,17.56
2019-06-10T03:48:17.147Z,17.38
2019-06-10T03:50:44.861Z,17.38
2019-06-10T03:53:12.824Z,17.29
2019-06-10T03:55:42.247Z,17.29
2019-06-10T03:58:09.646Z,17.36
2019-06-10T04:00:37.237Z,17.34
2019-06-10T04:03:04.957Z,17.53
2019-06-10T04:05:33.120Z,17.45
2019-06-10T04:08:02.123Z,17.47
2019-06-10T04:10:32.359Z,17.47
2019-06-10T04:13:02.460Z,17.63
2019-06-10T04:15:29.566Z,17.52
2019-06-10T04:17:57.951Z,17.50
2019-06-10T04:20:28.331Z,17.49
2019-06-10T04:22:54.256Z,17.51
2019-06-10T04:25:24.700Z,17.68
2019-06-10T04:27:52.447Z,17.57
2019-06-10T04:30:20.113Z,17.37
2019-06-10T04:32:47.915Z,17.44
2019-06-10T04:35:15.367Z,17.37
2019-06-10T04:37:43.055Z,17.42
2019-06-10T04:40:13.143Z,17.34
2019-06-10T04:42:39.715Z,17.30
2019-06-10T04:45:06.817Z,17.40
2019-06-10T04:47:34.552Z,17.44
2019-06-10T04:50:03.185Z,17.35
2019-06-10T04:52:32.882Z,17.33
2019-06-10T04:55:02.607Z,17.39
2019-06-10T04:57:32.224Z,17.50
2019-06-10T04:59:58.981Z,17.49
2019-06-10T05:02:27.391Z,17.51
2019-06-10T05:04:55.885Z,17.47
2019-06-10T05:07:24.145Z,17.53
2019-06-10T05:09:53.119Z,17.45
2019-06-10T05:12:23.264Z,17.45
2019-06-10T05:14:49.822Z,17.42
2019-06-10T05:17:17.441Z,17.65
2019-06-10T05:19:45.067Z,17.66
2019-06-10T05:22:13.359Z,17.62
2019-06-10T05:24:42.412Z,17.72
2019-06-10T05:27:09.855Z,17.81
2019-06-10T05:29:37.578Z,17.81
2019-06-10T05:32:05.598Z,17.90
2019-06-10T05:34:34.772Z,18.00
2019-06-10T05:37:02.821Z,18.10
2019-06-10T05:39:32.421Z,18.05
2019-06-10T05:41:59.890Z,18.02
2019-06-10T05:44:28.438Z,18.16
2019-06-10T05:46:55.555Z,18.12
2019-06-10T05:49:25.853Z,18.16
2019-06-10T05:51:52.989Z,18.13
2019-06-10T05:54:20.465Z,18.33
2019-06-10T05:56:47.785Z,18.29
2019-06-10T05:59:14.830Z,18.30
2019-06-10T06:01:43.158Z,18.21
2019-06-10T06:04:12.699Z,18.30
2019-06-10T06:06:42.479Z,18.39
2019-06-10T06:09:09.608Z,18.51
2019-06-10T06:11:37.780Z,18.54
2019-06-10T06:14:05.008Z,18.51
2019-06-10T06:16:45.256Z,18.60
2019-06-10T06:19:13.083Z,18.58
2019-06-10T06:21:47.097Z,18.85
2019-06-10T06:24:12.819Z,18.73
2019-06-10T06:26:42.786Z,18.74
2019-06-10T06:29:09.467Z,18.61
2019-06-10T06:31:37.737Z,18.74
2019-06-10T06:34:05.155Z,18.76
2019-06-10T06:36:34.701Z,18.81
2019-06-10T06:39:08.174Z,18.81
2019-06-10T06:41:42.921Z,18.72
2019-06-10T06:44:14.541Z,18.82
2019-06-10T06:46:42.984Z,18.90
2019-06-10T06:49:12.581Z,19.08
2019-06-10T06:51:52.095Z,19.19
2019-06-10T06:54:34.881Z,19.38
2019-06-10T06:57:03.651Z,19.41
2019-06-10T06:59:33.851Z,19.31
2019-06-10T07:02:02.717Z,19.43
2019-06-10T07:04:33.878Z,19.48
2019-06-10T07:07:02.675Z,19.63
2019-06-10T07:09:35.633Z,19.68
2019-06-10T07:12:04.056Z,19.86
2019-06-10T07:14:36.816Z,19.75
2019-06-10T07:17:04.011Z,19.81
2019-06-10T07:19:34.427Z,20.04
2019-06-10T07:22:11.405Z,20.33
2019-06-10T07:24:32.687Z,20.09
2019-06-10T07:26:59.054Z,19.95
2019-06-10T07:29:26.384Z,20.22
2019-06-10T07:31:54.387Z,20.26
2019-06-10T07:34:22.396Z,20.28
2019-06-10T07:36:52.010Z,20.29
2019-06-10T07:39:19.563Z,20.18
2019-06-10T07:41:47.878Z,20.33
2019-06-10T07:44:15.113Z,20.32
2019-06-10T07:46:45.180Z,20.62
2019-06-10T07:49:13.414Z,20.74
2019-06-10T07:51:45.592Z,20.51
2019-06-10T07:54:12.413Z,20.71
2019-06-10T07:56:45.206Z,20.47
2019-06-10T07:59:09.743Z,20.73
2019-06-10T08:01:42.275Z,20.63
2019-06-10T08:04:06.384Z,21.05
2019-06-10T08:06:35.168Z,20.94
2019-06-10T08:09:04.763Z,20.92
2019-06-10T08:11:33.210Z,21.03
2019-06-10T08:14:04.371Z,21.07
2019-06-10T08:16:29.648Z,21.11
2019-06-10T08:19:21.893Z,21.17
2019-06-10T08:21:26.522Z,21.41
2019-06-10T08:23:54.384Z,21.38
2019-06-10T08:26:23.186Z,21.55
2019-06-10T08:28:53.021Z,21.49
2019-06-10T08:31:22.621Z,21.83
2019-06-10T08:33:49.533Z,21.94
2019-06-10T08:36:16.880Z,22.12
2019-06-10T08:38:46.810Z,22.32
2019-06-10T08:41:13.212Z,22.12
2019-06-10T08:43:44.709Z,22.09
2019-06-10T08:46:09.808Z,22.24
2019-06-10T08:48:37.474Z,22.01
2019-06-10T08:51:05.686Z,22.11
2019-06-10T08:53:33.199Z,22.24
2019-06-10T08:56:02.889Z,22.57
2019-06-10T08:58:32.863Z,22.61
2019-06-10T09:01:02.342Z,22.71
2019-06-10T09:03:32.268Z,22.81
2019-06-10T09:05:59.686Z,22.84
2019-06-10T09:08:27.144Z,22.81
2019-06-10T09:10:55.346Z,23.00
2019-06-10T09:13:22.983Z,23.00
2019-06-10T09:16:07.120Z,22.90
2019-06-10T09:18:20.109Z,22.95
2019-06-10T09:20:52.660Z,23.13
2019-06-10T09:23:22.476Z,23.44
2019-06-10T09:25:49.450Z,23.19
2019-06-10T09:28:16.028Z,23.18
2019-06-10T09:30:48.802Z,23.05
2019-06-10T09:33:13.026Z,22.90
2019-06-10T09:35:44.123Z,22.89
2019-06-10T09:38:10.603Z,23.04
2019-06-10T09:41:00.387Z,23.18
2019-06-10T09:43:22.535Z,23.26
2019-06-10T09:45:55.271Z,23.17
2019-06-10T09:48:22.958Z,22.95
2019-06-10T09:50:53.593Z,23.24
2019-06-10T09:53:32.083Z,23.08
2019-06-10T09:55:51.087Z,23.15
2019-06-10T09:58:18.208Z,23.38
2019-06-10T10:00:49.397Z,23.28
2019-06-10T10:03:16.245Z,23.56
2019-06-10T10:05:57.264Z,23.88
2019-06-10T10:08:13.760Z,24.18
2019-06-10T10:10:42.837Z,24.38
2019-06-10T10:13:12.924Z,24.14
2019-06-10T10:15:39.936Z,24.04
2019-06-10T10:18:08.602Z,24.18
2019-06-10T10:20:36.488Z,24.00
2019-06-10T10:23:04.127Z,23.91
2019-06-10T10:25:33.267Z,23.93
2019-06-10T10:28:03.063Z,24.14
2019-06-10T10:30:29.835Z,24.39
2019-06-10T10:32:57.285Z,24.24
2019-06-10T10:35:25.156Z,24.06
2019-06-10T10:37:54.287Z,24.03
2019-06-10T10:40:23.329Z,24.10
2019-06-10T10:43:00.664Z,24.13
2019-06-10T10:45:22.530Z,24.22
2019-06-10T10:47:51.845Z,24.43
2019-06-10T10:50:19.319Z,24.65
2019-06-10T10:52:48.204Z,24.69
2019-06-10T10:55:16.503Z,24.64
2019-06-10T10:57:45.213Z,24.91
2019-06-10T11:00:13.582Z,25.37
2019-06-10T11:02:43.150Z,25.57
2019-06-10T11:05:12.816Z,25.89
2019-06-10T11:07:42.316Z,26.14
2019-06-10T11:10:12.686Z,26.03
2019-06-10T11:12:43.018Z,26.02
2019-06-10T11:15:13.693Z,25.41
2019-06-10T11:17:42.670Z,25.86
2019-06-10T11:20:10.463Z,26.07
2019-06-10T11:22:38.148Z,25.96
2019-06-10T11:25:05.901Z,26.39
2019-06-10T11:27:36.943Z,26.18
2019-06-10T11:30:05.185Z,25.82
2019-06-10T11:32:32.917Z,26.20
2019-06-10T11:35:02.784Z,25.99
2019-06-10T11:37:30.119Z,26.38
2019-06-10T11:39:57.165Z,26.47
2019-06-10T11:42:24.486Z,26.27
2019-06-10T11:44:57.329Z,26.46
2019-06-10T11:47:22.873Z,26.32
2019-06-10T11:49:53.469Z,26.42
2019-06-10T11:52:19.609Z,26.17
2019-06-10T11:54:55.654Z,26.72
2019-06-10T11:57:16.032Z,27.18
2019-06-10T11:59:44.077Z,26.94
2019-06-10T12:02:13.295Z,26.98
2019-06-10T12:04:41.855Z,27.47
2019-06-10T12:07:09.143Z,27.07
2019-06-10T12:09:37.164Z,26.51
2019-06-10T12:12:04.598Z,26.55
2019-06-10T12:14:33.155Z,27.04
2019-06-10T12:17:39.941Z,26.74
2019-06-10T12:19:33.863Z,27.12
2019-06-10T12:22:07.075Z,26.35
2019-06-10T12:24:33.229Z,26.24
2019-06-10T12:27:04.487Z,26.63
2019-06-10T12:29:30.715Z,26.98
2019-06-10T12:32:02.816Z,26.79
2019-06-10T12:34:27.573Z,27.62
2019-06-10T12:36:59.530Z,28.27
2019-06-10T12:39:23.665Z,28.28
2019-06-10T12:41:54.625Z,28.87
2019-06-10T12:44:22.811Z,29.08
2019-06-10T12:46:54.896Z,28.47
2019-06-10T12:49:19.501Z,28.01
2019-06-10T12:51:47.450Z,27.66
2019-06-10T12:54:15.117Z,27.57
2019-06-10T12:56:43.018Z,27.47
2019-06-10T12:59:13.293Z,27.15
2019-06-10T13:01:40.165Z,27.18
2019-06-10T13:04:09.452Z,27.24
2019-06-10T13:06:38.807Z,26.85
2019-06-10T13:09:08.081Z,26.94
2019-06-10T13:11:36.095Z,26.59
2019-06-10T13:14:06.441Z,26.33
2019-06-10T13:16:33.303Z,26.50
2019-06-10T13:19:06.147Z,26.63
2019-06-10T13:21:33.040Z,26.90
2019-06-10T13:24:02.525Z,26.36
2019-06-10T13:26:32.319Z,26.34
2019-06-10T13:28:59.002Z,26.55
2019-06-10T13:31:25.957Z,26.59
2019-06-10T13:33:53.682Z,26.68
2019-06-10T13:36:23.696Z,26.38
2019-06-10T13:38:53.084Z,26.81
2019-06-10T13:41:22.573Z,27.03
2019-06-10T13:43:49.495Z,27.34
2019-06-10T13:46:17.202Z,27.93
2019-06-10T13:48:44.839Z,26.94
2019-06-10T13:51:15.354Z,26.98
2019-06-10T13:53:42.608Z,26.82
2019-06-10T13:56:32.089Z,26.27
2019-06-10T13:58:45.025Z,26.13
2019-06-10T14:01:15.380Z,26.38
2019-06-10T14:03:38.336Z,26.72
2019-06-10T14:06:20.911Z,26.67
2019-06-10T14:08:34.449Z,26.75
2019-06-10T14:11:06.957Z,26.73
2019-06-10T14:13:32.600Z,26.92
2019-06-10T14:16:01.223Z,26.79
2019-06-10T14:18:29.320Z,27.03
2019-06-10T14:20:56.384Z,27.06
2019-06-10T14:23:23.647Z,26.69
2019-06-10T14:25:52.409Z,26.75
2019-06-10T14:28:35.843Z,26.54
2019-06-10T14:30:48.684Z,26.48
2019-06-10T14:33:16.763Z,26.44
2019-06-10T14:35:44.547Z,26.66
2019-06-10T14:38:14.342Z,26.56
2019-06-10T14:40:42.950Z,26.52
2019-06-10T14:43:13.505Z,26.16
2019-06-10T14:45:42.346Z,26.13
2019-06-10T14:48:11.494Z,26.19
2019-06-10T14:50:39.276Z,26.15
2019-06-10T14:53:07.001Z,25.79
2019-06-10T14:55:34.351Z,25.66
2019-06-10T14:58:02.703Z,25.60
2019-06-10T15:00:33.101Z,25.61
2019-06-10T15:03:02.416Z,25.59
2019-06-10T15:05:32.286Z,25.50
2019-06-10T15:07:59.229Z,25.69
2019-06-10T15:10:26.934Z,25.59
2019-06-10T15:12:55.272Z,25.67
2019-06-10T15:15:23.637Z,25.65
2019-06-10T15:17:52.513Z,25.80
2019-06-10T15:20:22.532Z,25.79
2019-06-10T15:22:52.477Z,25.59
2019-06-10T15:25:25.308Z,25.66
2019-06-10T15:27:48.751Z,25.66
2019-06-10T15:30:25.904Z,25.51
2019-06-10T15:32:45.283Z,25.69
2019-06-10T15:35:14.177Z,25.44
2019-06-10T15:38:08.862Z,25.48
2019-06-10T15:40:37.486Z,25.30
2019-06-10T15:43:06.326Z,25.39
2019-06-10T15:45:34.170Z,25.32
2019-06-10T15:48:02.674Z,25.19
2019-06-10T15:50:32.257Z,25.15
2019-06-10T15:52:59.389Z,25.21
2019-06-10T15:55:49.204Z,25.22
2019-06-10T15:57:56.911Z,25.42
2019-06-10T16:00:29.050Z,25.40
2019-06-10T16:02:54.221Z,25.38
2019-06-10T16:05:25.157Z,25.48
2019-06-10T16:07:52.982Z,25.34
2019-06-10T16:10:23.332Z,25.38
2019-06-10T16:12:52.588Z,25.48
2019-06-10T16:15:19.486Z,25.50
2019-06-10T16:17:48.105Z,25.46
2019-06-10T16:20:16.470Z,25.72
2019-06-10T16:22:45.054Z,25.74
2019-06-10T16:25:13.065Z,25.58
2019-06-10T16:27:48.643Z,25.54
2019-06-10T16:30:12.917Z,25.62
2019-06-10T16:32:40.470Z,25.57
2019-06-10T16:35:07.850Z,25.60
2019-06-10T16:37:35.523Z,25.40
2019-06-10T16:40:03.321Z,25.33
2019-06-10T16:42:32.186Z,25.30
2019-06-10T16:44:59.229Z,25.42
2019-06-10T16:47:27.361Z,25.28
2019-06-10T16:49:54.539Z,25.24
2019-06-10T16:52:24.067Z,25.20
2019-06-10T16:54:52.617Z,25.20
2019-06-10T16:57:23.922Z,24.94
2019-06-10T16:59:52.072Z,24.97
2019-06-10T17:02:22.330Z,24.76
2019-06-10T17:04:49.444Z,24.26
2019-06-10T17:07:16.493Z,23.81
2019-06-10T17:09:43.707Z,23.65
2019-06-10T17:12:12.635Z,23.22
2019-06-10T17:14:42.786Z,23.09
2019-06-10T17:17:09.498Z,22.71
2019-06-10T17:19:36.836Z,22.58
2019-06-10T17:22:03.888Z,22.42
2019-06-10T17:24:33.642Z,22.30
2019-06-10T17:27:02.614Z,22.23
2019-06-10T17:29:30.613Z,22.20
2019-06-10T17:31:58.689Z,22.12
2019-06-10T17:34:28.047Z,22.26
2019-06-10T17:36:56.016Z,22.19
2019-06-10T17:39:25.078Z,22.07
2019-06-10T17:41:52.664Z,22.30
2019-06-10T17:44:23.676Z,22.50
2019-06-10T17:46:48.986Z,22.28
2019-06-10T17:49:16.346Z,22.48
2019-06-10T17:51:43.444Z,22.36
2019-06-10T17:54:12.964Z,22.46
2019-06-10T17:56:42.475Z,22.39
2019-06-10T17:59:09.414Z,22.24
2019-06-10T18:01:36.769Z,22.22
2019-06-10T18:04:03.900Z,22.15
2019-06-10T18:06:34.408Z,21.84
2019-06-10T18:09:04.074Z,21.61
2019-06-10T18:11:34.174Z,21.48
2019-06-10T18:14:02.548Z,21.38
2019-06-10T18:16:30.269Z,21.17
2019-06-10T18:18:57.642Z,21.21
2019-06-10T18:21:26.293Z,21.06
2019-06-10T18:23:54.141Z,20.97
2019-06-10T18:26:23.075Z,21.01
2019-06-10T18:29:04.357Z,21.17
2019-06-10T18:31:20.156Z,21.18
2019-06-10T18:33:47.550Z,21.36
2019-06-10T18:36:14.558Z,21.06
2019-06-10T18:38:43.286Z,20.82
2019-06-10T18:41:12.885Z,20.56
2019-06-10T18:43:40.090Z,20.39
2019-06-10T18:46:07.321Z,20.25
2019-06-10T18:48:37.666Z,20.21
2019-06-10T18:51:04.737Z,20.34
2019-06-10T18:53:33.556Z,20.38
2019-06-10T18:56:05.181Z,20.25
2019-06-10T18:58:34.615Z,20.09
2019-06-10T19:01:07.215Z,20.04
2019-06-10T19:03:36.231Z,19.99
2019-06-10T19:06:02.847Z,19.95
2019-06-10T19:08:33.700Z,19.96
2019-06-10T19:11:02.356Z,19.94
2019-06-10T19:13:29.572Z,20.05
2019-06-10T19:15:56.974Z,19.61
2019-06-10T19:18:24.045Z,19.60
2019-06-10T19:20:53.071Z,19.75
2019-06-10T19:23:22.606Z,19.66
2019-06-10T19:25:52.532Z,19.75
2019-06-10T19:28:19.197Z,19.88
2019-06-10T19:30:46.816Z,19.84
2019-06-10T19:33:13.928Z,19.81
2019-06-10T19:35:43.720Z,19.94
2019-06-10T19:38:12.583Z,20.04
2019-06-10T19:40:40.042Z,19.51
2019-06-10T19:43:07.206Z,19.38
2019-06-10T19:48:19.640Z,19.35
2019-06-10T19:50:50.612Z,19.26
2019-06-10T19:53:15.951Z,19.17
2019-06-10T19:55:44.385Z,19.38
2019-06-10T19:58:13.408Z,19.26
2019-06-10T20:00:41.894Z,19.40
2019-06-10T20:03:10.473Z,19.15
2019-06-10T20:05:38.097Z,19.20
2019-06-10T20:08:05.801Z,19.24
2019-06-10T20:10:34.081Z,19.14
2019-06-10T20:13:02.286Z,19.01
2019-06-10T20:15:29.616Z,18.86
2019-06-10T20:17:57.567Z,18.78
2019-06-10T20:20:24.969Z,18.56
2019-06-10T20:22:57.225Z,18.56
2019-06-10T20:25:23.143Z,18.69
2019-06-10T20:27:52.458Z,18.64
2019-06-10T20:30:25.191Z,18.78
2019-06-10T20:32:51.959Z,18.86
2019-06-10T20:35:18.988Z,18.66
2019-06-10T20:37:47.377Z,18.78
2019-06-10T20:40:14.561Z,18.86
2019-06-10T20:42:42.305Z,18.91
2019-06-10T20:45:10.172Z,18.86
2019-06-10T20:47:37.786Z,18.87
2019-06-10T20:50:05.647Z,18.82
2019-06-10T20:52:32.691Z,18.63
2019-06-10T20:55:02.421Z,18.56
2019-06-10T20:57:29.381Z,18.57
2019-06-10T20:59:56.751Z,18.73
2019-06-10T21:02:24.902Z,18.75
2019-06-10T21:04:53.276Z,18.80
2019-06-10T21:07:23.169Z,18.85
2019-06-10T21:09:53.443Z,19.03
2019-06-10T21:12:22.219Z,18.86
2019-06-10T21:14:52.955Z,18.88
2019-06-10T21:17:19.889Z,19.16
2019-06-10T21:19:47.897Z,18.93
2019-06-10T21:22:16.463Z,18.81
2019-06-10T21:24:44.498Z,18.88
2019-06-10T21:27:11.831Z,18.82
2019-06-10T21:29:39.113Z,18.79
2019-06-10T21:32:07.022Z,18.84
2019-06-10T21:34:34.662Z,18.77
2019-06-10T21:37:03.288Z,18.82
2019-06-10T21:39:32.245Z,18.95
2019-06-10T21:42:02.109Z,19.05
2019-06-10T21:44:29.177Z,18.88
2019-06-10T21:46:56.775Z,18.75
2019-06-10T21:49:26.348Z,18.57
2019-06-10T21:51:56.774Z,18.69
2019-06-10T21:54:23.548Z,18.80
2019-06-10T21:56:54.045Z,18.67
2019-06-10T21:59:19.483Z,18.88
2019-06-10T22:04:34.994Z,18.50
2019-06-10T22:07:03.421Z,18.63
2019-06-10T22:09:30.425Z,18.55
2019-06-10T22:11:57.681Z,18.53
2019-06-10T22:14:25.036Z,18.55
2019-06-10T22:16:54.982Z,18.49
2019-06-10T22:19:23.152Z,18.44
2019-06-10T22:21:53.197Z,18.51
2019-06-10T22:24:22.803Z,18.52
2019-06-10T22:26:51.028Z,18.47
2019-06-10T22:29:19.111Z,18.49
2019-06-10T22:31:47.181Z,18.52
2019-06-10T22:34:14.213Z,18.59
2019-06-10T22:36:42.344Z,18.40
2019-06-10T22:39:12.337Z,18.47
2019-06-10T22:41:39.033Z,18.48
2019-06-10T22:44:06.379Z,18.53
2019-06-10T22:46:33.748Z,18.56
2019-06-10T22:49:03.069Z,18.57
2019-06-10T22:51:32.995Z,18.57
2019-06-10T22:54:00.816Z,18.48
2019-06-10T22:56:29.544Z,18.38
2019-06-10T22:58:57.474Z,18.23
2019-06-10T23:01:33.797Z,18.20
2019-06-10T23:03:54.557Z,18.12
2019-06-10T23:06:23.252Z,18.17
2019-06-10T23:08:53.376Z,18.13
2019-06-10T23:11:19.993Z,18.15
2019-06-10T23:13:48.610Z,18.13
2019-06-10T23:16:16.612Z,18.16
2019-06-10T23:18:44.239Z,18.13
2019-06-10T23:21:13.435Z,17.94
2019-06-10T23:23:42.999Z,17.97
2019-06-10T23:26:12.943Z,18.05
2019-06-10T23:28:41.979Z,17.83
2019-06-10T23:31:09.559Z,17.80
2019-06-10T23:36:23.577Z,17.72
2019-06-10T23:38:52.541Z,17.80
2019-06-10T23:41:22.342Z,17.70
2019-06-10T23:43:50.847Z,17.74
2019-06-10T23:46:18.261Z,17.79
2019-06-10T23:48:45.618Z,17.61
2019-06-10T23:51:13.928Z,17.83
2019-06-10T23:53:41.571Z,17.96
2019-06-10T23:56:08.878Z,17.91
2019-06-10T23:58:36.286Z,17.85
